Porangaba, Brazil
Current Conditions -  °F | °C
As of 6:00 PM on Thursday 30 Oct 2014 (Local Time) from SBCZ Reporting Station
Overcast Overcast  
Wind Chill: 77°   Ceiling: 1000
Heat Index: 78°   Visibility: 6mi
Dew Point: 77°   Wind: 3mph
Humidity: 100%   Direction: 20°NNE
Pressure: 29.71"   Gusts: NA
Location:  8.8°S, 70.6°W
Report Text: SBCZ 302300Z 02003KT 9999 BKN010 OVC100 25/25 Q1006
Loading
Personal Weather Stations






























Interactive Weather Map
Tropical Storm Tracking
New forecast layout! Learn more

10-Day Weather Forecast

Advertisements
Track Severe Weather on mobile